Time;durP1;ratioP1;P1;durP2;ratioP2;P2;SDS_P1;SDS_P2;PMS_P1;PMS_P2;Temp;Humidity;BMP_temperature;BMP_pressure;BME280_temperature;BME280_humidity;BME280_pressure;Samples;Min_cycle;Max_cycle;Signal;HPM_P1;HPM_P2
2023/01/04 00:00:39;;;;;;;500.20;202.03;;;;;;;;;;5002215;28;20584;-50
2023/01/04 00:03:05;;;;;;;527.00;217.67;;;;;;;;;;5002849;28;20296;-50
2023/01/04 00:05:32;;;;;;;509.17;203.00;;;;;;;;;;5003163;28;20274;-50
2023/01/04 00:07:59;;;;;;;481.07;194.67;;;;;;;;;;4984903;28;20294;-50
2023/01/04 00:10:26;;;;;;;545.50;228.57;;;;;;;;;;4987037;28;20180;-50
2023/01/04 00:12:55;;;;;;;557.10;226.53;;;;;;;;;;5002292;28;20703;-50
2023/01/04 00:15:21;;;;;;;517.50;207.40;;;;;;;;;;4984838;28;20235;-50
2023/01/04 00:17:48;;;;;;;533.83;217.47;;;;;;;;;;4999972;28;20220;-50
2023/01/04 00:20:14;;;;;;;549.40;230.33;;;;;;;;;;5001903;28;20430;-50
2023/01/04 00:22:41;;;;;;;495.67;212.13;;;;;;;;;;5002115;28;20437;-50
2023/01/04 00:25:07;;;;;;;560.63;225.93;;;;;;;;;;5002564;28;20231;-49
2023/01/04 00:27:34;;;;;;;513.33;209.77;;;;;;;;;;5000404;28;20223;-50
2023/01/04 00:30:00;;;;;;;496.07;204.03;;;;;;;;;;4998644;28;20229;-50
2023/01/04 00:32:26;;;;;;;497.20;208.10;;;;;;;;;;4999439;28;20225;-49
2023/01/04 00:34:53;;;;;;;511.23;209.43;;;;;;;;;;5001636;28;25169;-50
2023/01/04 00:37:19;;;;;;;513.23;207.57;;;;;;;;;;5003372;28;20249;-50
2023/01/04 00:39:46;;;;;;;531.73;221.83;;;;;;;;;;5001026;28;20299;-51
2023/01/04 00:42:12;;;;;;;538.50;214.93;;;;;;;;;;5001987;28;20319;-50
2023/01/04 00:44:39;;;;;;;520.87;210.03;;;;;;;;;;5001310;28;20297;-49
2023/01/04 00:47:05;;;;;;;566.37;225.30;;;;;;;;;;4999790;28;20282;-49
2023/01/04 00:49:35;;;;;;;504.13;204.37;;;;;;;;;;5001325;28;20311;-49
2023/01/04 00:52:01;;;;;;;511.73;204.40;;;;;;;;;;4974759;28;20231;-49
2023/01/04 00:54:27;;;;;;;561.57;229.37;;;;;;;;;;5000791;28;20297;-49
2023/01/04 00:56:54;;;;;;;515.07;213.10;;;;;;;;;;4999988;28;20221;-50
2023/01/04 00:59:21;;;;;;;525.23;213.73;;;;;;;;;;4999057;28;20224;-50
2023/01/04 01:01:48;;;;;;;493.87;213.87;;;;;;;;;;5000511;28;20575;-49
2023/01/04 01:04:16;;;;;;;573.60;231.43;;;;;;;;;;5000868;28;20499;-49
2023/01/04 01:06:42;;;;;;;493.70;188.83;;;;;;;;;;5000837;28;20229;-49
2023/01/04 01:09:12;;;;;;;520.90;208.33;;;;;;;;;;5002084;28;20209;-49
2023/01/04 01:11:39;;;;;;;513.07;203.80;;;;;;;;;;4999824;28;20234;-49
2023/01/04 01:14:05;;;;;;;529.17;219.90;;;;;;;;;;4996912;28;20370;-50
2023/01/04 01:16:31;;;;;;;477.37;187.53;;;;;;;;;;5000774;28;20184;-49
2023/01/04 01:18:58;;;;;;;563.67;223.23;;;;;;;;;;4998248;28;20232;-49
2023/01/04 01:21:26;;;;;;;519.77;210.90;;;;;;;;;;5001786;28;20225;-48
2023/01/04 01:23:54;;;;;;;484.30;193.07;;;;;;;;;;5001287;28;20261;-49
2023/01/04 01:26:20;;;;;;;498.30;198.90;;;;;;;;;;4999332;28;20248;-50
2023/01/04 01:28:47;;;;;;;499.67;199.90;;;;;;;;;;5000809;28;20223;-50
2023/01/04 01:31:14;;;;;;;558.43;229.93;;;;;;;;;;5000591;28;20169;-50
2023/01/04 01:33:42;;;;;;;537.07;214.70;;;;;;;;;;4999684;28;20274;-49
2023/01/04 01:36:10;;;;;;;503.17;201.83;;;;;;;;;;5000514;28;20236;-49
2023/01/04 01:38:36;;;;;;;517.87;209.20;;;;;;;;;;4999438;28;20485;-49
2023/01/04 01:41:04;;;;;;;572.00;226.93;;;;;;;;;;4997395;28;20274;-50
2023/01/04 01:43:47;;;;;;;544.00;219.37;;;;;;;;;;4999832;28;20763;-50
2023/01/04 01:46:14;;;;;;;534.07;209.80;;;;;;;;;;4999219;28;20200;-49
2023/01/04 01:48:41;;;;;;;509.40;206.03;;;;;;;;;;5000646;28;20294;-50
2023/01/04 01:51:07;;;;;;;507.63;206.63;;;;;;;;;;4980921;28;20239;-50
2023/01/04 01:53:35;;;;;;;497.40;198.37;;;;;;;;;;4999262;28;20955;-50
2023/01/04 01:56:03;;;;;;;531.33;210.70;;;;;;;;;;4999281;28;20212;-50
2023/01/04 01:58:32;;;;;;;504.03;212.03;;;;;;;;;;5001328;28;20204;-50
2023/01/04 02:00:59;;;;;;;537.30;207.33;;;;;;;;;;5000911;28;20604;-50
2023/01/04 02:03:34;;;;;;;476.60;192.23;;;;;;;;;;4999160;28;20526;-49
2023/01/04 02:06:01;;;;;;;492.97;197.30;;;;;;;;;;5000460;28;20300;-49
2023/01/04 02:08:29;;;;;;;509.63;203.33;;;;;;;;;;4982325;28;20217;-49
2023/01/04 02:10:56;;;;;;;493.73;201.00;;;;;;;;;;4999297;28;20220;-50
2023/01/04 02:16:13;;;;;;;539.83;217.27;;;;;;;;;;5000136;28;20227;-49
2023/01/04 02:18:45;;;;;;;569.10;234.83;;;;;;;;;;4999486;28;20213;-50
2023/01/04 02:21:17;;;;;;;530.60;209.03;;;;;;;;;;5000730;28;20681;-49
2023/01/04 02:23:53;;;;;;;536.87;206.30;;;;;;;;;;4981864;28;20705;-49
2023/01/04 02:26:35;;;;;;;527.73;211.17;;;;;;;;;;4999887;28;20223;-50
2023/01/04 02:29:20;;;;;;;508.47;203.97;;;;;;;;;;4981382;28;20318;-49
2023/01/04 02:31:52;;;;;;;556.20;228.27;;;;;;;;;;4999980;28;20915;-50
2023/01/04 02:34:22;;;;;;;501.40;196.03;;;;;;;;;;4998870;28;20205;-50
2023/01/04 02:37:03;;;;;;;558.47;221.13;;;;;;;;;;4998767;28;20217;-49
2023/01/04 02:39:35;;;;;;;485.70;201.43;;;;;;;;;;4998047;28;20336;-50
2023/01/04 02:44:51;;;;;;;547.83;218.97;;;;;;;;;;4999439;28;20658;-49
2023/01/04 02:45:15;;;;;;;538.23;213.23;;;;;;;;;;4991454;28;20216;-49
2023/01/04 02:50:29;;;;;;;523.40;217.30;;;;;;;;;;4999766;28;20282;-50
2023/01/04 02:52:56;;;;;;;480.10;192.57;;;;;;;;;;4999300;28;20213;-49
2023/01/04 02:55:23;;;;;;;531.77;217.57;;;;;;;;;;4999511;28;20327;-51
2023/01/04 02:58:07;;;;;;;488.90;199.53;;;;;;;;;;4999279;28;20702;-50
2023/01/04 03:06:14;;;;;;;531.00;218.07;;;;;;;;;;5000617;28;20217;-49
2023/01/04 03:06:29;;;;;;;527.27;205.93;;;;;;;;;;4998840;28;20320;-49
2023/01/04 03:09:08;;;;;;;539.37;221.43;;;;;;;;;;4997862;28;20509;-49
2023/01/04 03:14:48;;;;;;;520.87;206.13;;;;;;;;;;4999303;28;20239;-50
2023/01/04 03:17:18;;;;;;;533.03;207.67;;;;;;;;;;4997444;28;20217;-49
2023/01/04 03:19:50;;;;;;;501.47;200.77;;;;;;;;;;4999540;28;20268;-49
2023/01/04 03:36:15;;;;;;;501.47;200.83;;;;;;;;;;4997842;28;20285;-50
2023/01/04 03:50:25;;;;;;;508.53;201.17;;;;;;;;;;4999820;28;20232;-50
2023/01/04 03:52:58;;;;;;;515.07;200.33;;;;;;;;;;4997158;28;20287;-49
2023/01/04 03:55:25;;;;;;;486.37;189.17;;;;;;;;;;4998813;28;20224;-49
2023/01/04 03:57:51;;;;;;;473.93;194.27;;;;;;;;;;4999222;28;20240;-49
2023/01/04 04:00:18;;;;;;;508.37;206.43;;;;;;;;;;4997425;28;20217;-49
2023/01/04 04:02:46;;;;;;;480.50;193.33;;;;;;;;;;4997407;28;20224;-51
2023/01/04 04:08:25;;;;;;;534.20;213.43;;;;;;;;;;4997652;28;20283;-49
2023/01/04 04:10:52;;;;;;;492.83;197.73;;;;;;;;;;4984152;28;20177;-49
2023/01/04 04:13:18;;;;;;;492.90;204.23;;;;;;;;;;4999419;28;20201;-49
2023/01/04 04:15:45;;;;;;;487.73;198.63;;;;;;;;;;4996883;28;20661;-49
2023/01/04 04:18:11;;;;;;;555.83;224.93;;;;;;;;;;4998150;28;20235;-50
2023/01/04 04:20:38;;;;;;;536.60;211.93;;;;;;;;;;4997714;28;20267;-49
2023/01/04 04:23:04;;;;;;;502.70;203.83;;;;;;;;;;4996795;28;20229;-48
2023/01/04 04:25:31;;;;;;;484.73;202.67;;;;;;;;;;4999127;28;20261;-48
2023/01/04 04:27:58;;;;;;;501.50;204.33;;;;;;;;;;4998946;28;20824;-50
2023/01/04 04:30:24;;;;;;;477.37;195.77;;;;;;;;;;5002138;28;20505;-50
2023/01/04 04:32:51;;;;;;;518.40;214.10;;;;;;;;;;5000159;28;20221;-49
2023/01/04 04:35:17;;;;;;;503.30;200.70;;;;;;;;;;4985654;28;20696;-49
2023/01/04 04:37:43;;;;;;;520.97;210.03;;;;;;;;;;5001084;28;20183;-49
2023/01/04 04:41:37;;;;;;;541.43;220.17;;;;;;;;;;5001646;28;20178;-50
2023/01/04 04:42:56;;;;;;;530.50;215.43;;;;;;;;;;5001136;28;20225;-49
2023/01/04 04:45:23;;;;;;;542.80;221.53;;;;;;;;;;5001168;28;20225;-49
2023/01/04 04:47:49;;;;;;;518.83;206.87;;;;;;;;;;4998635;28;20228;-49
2023/01/04 04:50:15;;;;;;;499.93;190.03;;;;;;;;;;4983624;28;20311;-49
2023/01/04 04:52:41;;;;;;;452.90;195.23;;;;;;;;;;4999936;28;20396;-50
2023/01/04 04:55:08;;;;;;;541.83;224.47;;;;;;;;;;5001388;28;20181;-50
2023/01/04 04:57:34;;;;;;;555.13;224.00;;;;;;;;;;5000395;28;20585;-50
2023/01/04 05:00:00;;;;;;;498.27;203.87;;;;;;;;;;4999226;28;20705;-50
2023/01/04 05:02:26;;;;;;;502.37;204.73;;;;;;;;;;5002896;28;20228;-50
2023/01/04 05:04:52;;;;;;;498.27;201.53;;;;;;;;;;5000630;28;20243;-51
2023/01/04 05:07:19;;;;;;;509.87;207.77;;;;;;;;;;5001834;28;20232;-50
2023/01/04 05:09:45;;;;;;;458.23;177.53;;;;;;;;;;5000613;28;20216;-50
2023/01/04 05:14:57;;;;;;;552.90;223.90;;;;;;;;;;4999430;28;20339;-50
2023/01/04 05:17:23;;;;;;;486.87;199.70;;;;;;;;;;5000399;28;20319;-49
2023/01/04 05:19:50;;;;;;;644.00;267.57;;;;;;;;;;4986076;23;20472;-54
2023/01/04 05:22:16;;;;;;;660.50;275.27;;;;;;;;;;4963047;28;20308;-54
2023/01/04 05:24:43;;;;;;;669.43;271.73;;;;;;;;;;4937069;28;20353;-54
2023/01/04 05:27:10;;;;;;;607.27;243.73;;;;;;;;;;4966257;28;20221;-55
2023/01/04 05:32:21;;;;;;;721.73;278.60;;;;;;;;;;4946322;28;20737;-54
2023/01/04 05:34:48;;;;;;;712.23;263.87;;;;;;;;;;4955940;28;20175;-54
2023/01/04 05:37:14;;;;;;;652.17;244.53;;;;;;;;;;4966527;28;20182;-54
2023/01/04 05:39:41;;;;;;;770.50;288.47;;;;;;;;;;4953649;28;20210;-55
2023/01/04 05:42:26;;;;;;;672.60;251.93;;;;;;;;;;4951526;28;20214;-54
2023/01/04 05:44:56;;;;;;;778.93;281.23;;;;;;;;;;4950410;28;20265;-54
2023/01/04 05:47:23;;;;;;;714.73;278.27;;;;;;;;;;4952546;28;20432;-54
2023/01/04 05:49:49;;;;;;;685.33;266.63;;;;;;;;;;4948249;28;20201;-54
2023/01/04 05:52:16;;;;;;;696.50;258.63;;;;;;;;;;4951656;28;20360;-55
2023/01/04 05:54:43;;;;;;;748.37;286.87;;;;;;;;;;4949659;28;20224;-56
2023/01/04 05:57:11;;;;;;;643.07;247.37;;;;;;;;;;4941917;28;20616;-55
2023/01/04 05:59:38;;;;;;;705.80;257.37;;;;;;;;;;4949667;28;20853;-55
2023/01/04 06:02:06;;;;;;;718.73;274.10;;;;;;;;;;4947427;28;20638;-54
2023/01/04 06:04:33;;;;;;;655.60;243.70;;;;;;;;;;4972853;28;20186;-55
2023/01/04 06:06:59;;;;;;;644.93;240.67;;;;;;;;;;4950033;28;20232;-54
2023/01/04 06:09:26;;;;;;;649.70;243.03;;;;;;;;;;4973510;28;20225;-54
2023/01/04 06:11:56;;;;;;;745.67;289.80;;;;;;;;;;4948210;28;20222;-55
2023/01/04 06:14:25;;;;;;;640.93;237.60;;;;;;;;;;4951994;28;20720;-55
2023/01/04 06:16:54;;;;;;;740.33;286.67;;;;;;;;;;4961695;28;20205;-55
2023/01/04 06:19:20;;;;;;;714.93;273.10;;;;;;;;;;4963962;28;20915;-54
2023/01/04 06:21:49;;;;;;;686.53;256.47;;;;;;;;;;4950839;28;20316;-55
2023/01/04 06:24:19;;;;;;;857.13;345.70;;;;;;;;;;4936931;28;20218;-54
2023/01/04 06:26:45;;;;;;;707.53;265.17;;;;;;;;;;4926393;28;20233;-54
2023/01/04 06:32:19;;;;;;;676.50;294.27;;;;;;;;;;5040315;27;21073;-54
2023/01/04 06:34:45;;;;;;;611.63;250.30;;;;;;;;;;5004643;28;21193;-54
2023/01/04 06:37:11;;;;;;;726.90;310.00;;;;;;;;;;4997007;28;20340;-53
2023/01/04 06:39:38;;;;;;;724.57;306.40;;;;;;;;;;4986380;28;20254;-54
2023/01/04 06:42:05;;;;;;;723.10;296.40;;;;;;;;;;4999763;28;20751;-53
2023/01/04 06:44:31;;;;;;;708.50;291.03;;;;;;;;;;4994835;28;20273;-54
2023/01/04 06:46:57;;;;;;;751.67;316.83;;;;;;;;;;4992740;28;20215;-53
2023/01/04 06:49:23;;;;;;;786.97;341.97;;;;;;;;;;4990764;28;20188;-53
2023/01/04 06:51:50;;;;;;;771.30;309.37;;;;;;;;;;4931958;28;20310;-52
2023/01/04 06:54:16;;;;;;;833.67;329.23;;;;;;;;;;4981718;28;20702;-52
2023/01/04 06:56:43;;;;;;;763.13;321.93;;;;;;;;;;5004957;28;20455;-52
2023/01/04 06:59:09;;;;;;;764.57;299.33;;;;;;;;;;4997902;28;20223;-54
2023/01/04 07:01:35;;;;;;;786.83;291.40;;;;;;;;;;5007951;28;20220;-52
2023/01/04 07:04:02;;;;;;;873.67;336.90;;;;;;;;;;4998795;28;20663;-52
2023/01/04 07:06:28;;;;;;;842.40;327.33;;;;;;;;;;5004997;28;20326;-54
2023/01/04 07:08:55;;;;;;;817.70;317.40;;;;;;;;;;4995643;28;20483;-54
2023/01/04 07:11:22;;;;;;;739.97;300.50;;;;;;;;;;4990898;28;20497;-54
2023/01/04 07:13:48;;;;;;;832.97;327.33;;;;;;;;;;5000922;28;20348;-55
2023/01/04 07:16:14;;;;;;;755.73;305.50;;;;;;;;;;4997384;28;20235;-55
2023/01/04 07:18:47;;;;;;;845.97;344.93;;;;;;;;;;4987794;28;20242;-54
2023/01/04 07:21:13;;;;;;;811.00;325.10;;;;;;;;;;4991833;28;20236;-56
2023/01/04 07:23:39;;;;;;;859.70;349.40;;;;;;;;;;4987487;28;20297;-52
2023/01/04 07:26:05;;;;;;;869.70;340.23;;;;;;;;;;4986896;28;20223;-55
2023/01/04 07:31:17;;;;;;;818.63;336.17;;;;;;;;;;4993763;28;20315;-55
2023/01/04 07:33:43;;;;;;;863.47;349.53;;;;;;;;;;4996905;28;20211;-54
2023/01/04 07:36:09;;;;;;;875.47;373.67;;;;;;;;;;4989095;28;20222;-54
2023/01/04 07:38:35;;;;;;;882.90;345.87;;;;;;;;;;4996229;28;20363;-54
2023/01/04 07:41:02;;;;;;;910.17;379.23;;;;;;;;;;4984970;28;20216;-54
2023/01/04 07:43:28;;;;;;;804.57;323.67;;;;;;;;;;4975643;28;20212;-54
2023/01/04 07:45:54;;;;;;;930.57;389.70;;;;;;;;;;4975960;28;20449;-55
2023/01/04 07:48:23;;;;;;;903.90;362.70;;;;;;;;;;4973041;28;23133;-54
2023/01/04 07:50:50;;;;;;;854.90;343.83;;;;;;;;;;4982086;28;20232;-54
2023/01/04 07:53:17;;;;;;;882.23;346.87;;;;;;;;;;4978653;28;20304;-54
2023/01/04 07:55:43;;;;;;;729.47;305.37;;;;;;;;;;4993551;28;20656;-54
2023/01/04 07:58:10;;;;;;;835.03;343.63;;;;;;;;;;4985483;28;20270;-53
2023/01/04 08:00:36;;;;;;;763.07;299.53;;;;;;;;;;5006939;28;20455;-54
2023/01/04 08:03:02;;;;;;;780.07;302.13;;;;;;;;;;4989659;28;20219;-54
2023/01/04 08:05:31;;;;;;;811.87;327.50;;;;;;;;;;5008866;28;20293;-54
2023/01/04 08:07:57;;;;;;;720.20;293.20;;;;;;;;;;5001887;28;20696;-53
2023/01/04 08:10:23;;;;;;;703.93;288.87;;;;;;;;;;5005821;28;20185;-54
2023/01/04 08:12:50;;;;;;;704.10;282.20;;;;;;;;;;5005051;28;20310;-54
2023/01/04 08:15:16;;;;;;;818.50;338.80;;;;;;;;;;4993879;28;20721;-54
2023/01/04 08:17:42;;;;;;;822.90;327.53;;;;;;;;;;4999635;28;20219;-54
2023/01/04 08:20:08;;;;;;;840.10;321.67;;;;;;;;;;5001139;28;20359;-54
2023/01/04 08:22:35;;;;;;;800.63;303.77;;;;;;;;;;4954347;28;20737;-54
2023/01/04 08:25:01;;;;;;;791.47;316.83;;;;;;;;;;4983998;28;20188;-54
2023/01/04 08:27:31;;;;;;;882.50;356.67;;;;;;;;;;4982281;28;20237;-54
2023/01/04 08:29:58;;;;;;;948.83;389.93;;;;;;;;;;4950864;28;20221;-53
2023/01/04 08:32:24;;;;;;;791.40;315.57;;;;;;;;;;4980115;28;20311;-53
2023/01/04 08:34:52;;;;;;;791.33;318.77;;;;;;;;;;4981764;28;20196;-54
2023/01/04 08:37:18;;;;;;;856.73;356.73;;;;;;;;;;4976331;28;20224;-54
2023/01/04 08:39:45;;;;;;;884.47;358.27;;;;;;;;;;4976831;28;20230;-54
2023/01/04 08:42:11;;;;;;;907.90;389.17;;;;;;;;;;4971637;28;20227;-53
2023/01/04 08:44:37;;;;;;;912.90;375.30;;;;;;;;;;4979974;28;20665;-54
2023/01/04 08:47:04;;;;;;;857.73;346.13;;;;;;;;;;4977733;28;20215;-53
2023/01/04 08:49:30;;;;;;;883.73;353.73;;;;;;;;;;4982810;28;20188;-55
2023/01/04 08:51:57;;;;;;;847.13;340.53;;;;;;;;;;4965141;28;20558;-54
2023/01/04 08:54:23;;;;;;;807.27;331.77;;;;;;;;;;4989455;28;20262;-54
2023/01/04 08:56:52;;;;;;;776.73;304.23;;;;;;;;;;4999182;28;20216;-54
2023/01/04 08:59:18;;;;;;;819.77;326.73;;;;;;;;;;4987957;28;20220;-53
2023/01/04 09:01:45;;;;;;;844.17;348.43;;;;;;;;;;4981626;28;20705;-56
2023/01/04 09:04:11;;;;;;;783.80;301.70;;;;;;;;;;4989401;28;20687;-54
2023/01/04 09:06:38;;;;;;;735.17;280.80;;;;;;;;;;5001761;28;20196;-56
2023/01/04 09:09:04;;;;;;;822.50;333.17;;;;;;;;;;4989627;28;20289;-54
2023/01/04 09:11:31;;;;;;;733.47;294.93;;;;;;;;;;4982956;28;20273;-54
2023/01/04 09:13:58;;;;;;;856.87;344.40;;;;;;;;;;4978487;28;20686;-54
2023/01/04 09:16:24;;;;;;;846.40;345.10;;;;;;;;;;4978693;28;20222;-55
2023/01/04 09:18:50;;;;;;;818.40;340.50;;;;;;;;;;4982891;28;20308;-54
2023/01/04 09:21:18;;;;;;;859.63;337.37;;;;;;;;;;4985533;28;20689;-54
2023/01/04 09:23:44;;;;;;;823.80;326.80;;;;;;;;;;4985796;28;20562;-54
2023/01/04 09:26:12;;;;;;;721.33;283.57;;;;;;;;;;4994028;28;20216;-55
2023/01/04 09:28:41;;;;;;;818.20;319.37;;;;;;;;;;4974930;28;20181;-54
2023/01/04 09:31:08;;;;;;;921.17;362.00;;;;;;;;;;4984636;28;20751;-54
2023/01/04 09:33:35;;;;;;;833.90;330.30;;;;;;;;;;4992437;28;20762;-54
2023/01/04 09:36:04;;;;;;;773.73;295.83;;;;;;;;;;5000202;28;20553;-54
2023/01/04 09:38:31;;;;;;;796.63;306.90;;;;;;;;;;5000717;28;20227;-54
2023/01/04 09:40:58;;;;;;;843.73;326.53;;;;;;;;;;4989833;28;21186;-54
2023/01/04 09:43:24;;;;;;;850.27;342.40;;;;;;;;;;4990743;28;20322;-54
2023/01/04 09:45:53;;;;;;;827.50;330.63;;;;;;;;;;4983578;28;20866;-54
2023/01/04 09:48:24;;;;;;;863.87;341.93;;;;;;;;;;4983484;28;20220;-53
2023/01/04 09:51:13;;;;;;;818.40;347.50;;;;;;;;;;4983990;28;20475;-54
2023/01/04 09:53:58;;;;;;;829.70;362.67;;;;;;;;;;4968344;28;20385;-54
2023/01/04 09:56:29;;;;;;;799.27;335.70;;;;;;;;;;4969075;28;20384;-54
2023/01/04 09:58:56;;;;;;;795.17;318.93;;;;;;;;;;4971349;28;20318;-54
2023/01/04 10:01:39;;;;;;;831.53;327.30;;;;;;;;;;4969327;28;20223;-58
2023/01/04 10:04:18;;;;;;;810.57;320.23;;;;;;;;;;4979382;28;20216;-55
2023/01/04 10:06:44;;;;;;;776.37;306.83;;;;;;;;;;4989940;28;20247;-54
2023/01/04 10:09:13;;;;;;;885.37;368.20;;;;;;;;;;4964650;28;20235;-54
2023/01/04 10:11:52;;;;;;;893.43;356.23;;;;;;;;;;4970262;28;20209;-55
2023/01/04 10:14:18;;;;;;;872.53;365.60;;;;;;;;;;4982084;28;20247;-55
2023/01/04 10:17:05;;;;;;;910.50;364.93;;;;;;;;;;4967700;28;20196;-54
2023/01/04 10:19:50;;;;;;;940.83;380.73;;;;;;;;;;4957974;28;21273;-54
2023/01/04 10:22:31;;;;;;;830.93;347.87;;;;;;;;;;4980741;28;20231;-55
2023/01/04 10:25:18;;;;;;;781.47;321.20;;;;;;;;;;4983441;28;20366;-54
2023/01/04 10:28:01;;;;;;;847.03;330.93;;;;;;;;;;4988003;28;20250;-54
2023/01/04 10:30:32;;;;;;;777.87;294.27;;;;;;;;;;4982887;28;20927;-55
2023/01/04 10:33:04;;;;;;;914.80;371.83;;;;;;;;;;4979441;28;20231;-54
2023/01/04 10:35:33;;;;;;;787.87;314.23;;;;;;;;;;4983667;28;20220;-55
2023/01/04 10:38:01;;;;;;;967.60;418.87;;;;;;;;;;4983259;28;20297;-56
2023/01/04 10:40:28;;;;;;;822.50;346.83;;;;;;;;;;4978493;28;20235;-54
2023/01/04 10:43:03;;;;;;;829.87;330.83;;;;;;;;;;4990173;28;20257;-55
2023/01/04 10:45:33;;;;;;;780.30;311.40;;;;;;;;;;4980114;28;20267;-55
2023/01/04 10:48:01;;;;;;;874.97;330.03;;;;;;;;;;4979884;28;20213;-55
2023/01/04 10:50:31;;;;;;;873.43;353.93;;;;;;;;;;4982596;28;20518;-55
2023/01/04 10:53:18;;;;;;;896.33;365.97;;;;;;;;;;4977325;28;20232;-55
2023/01/04 10:55:58;;;;;;;753.87;301.07;;;;;;;;;;4976357;28;20656;-55
2023/01/04 10:58:25;;;;;;;789.93;333.80;;;;;;;;;;4988479;28;20186;-56
2023/01/04 11:00:54;;;;;;;852.10;336.23;;;;;;;;;;4974463;28;20255;-54
2023/01/04 11:03:26;;;;;;;854.93;348.37;;;;;;;;;;4980423;28;20614;-55
2023/01/04 11:06:02;;;;;;;836.53;337.17;;;;;;;;;;4973701;28;20703;-55
2023/01/04 11:08:48;;;;;;;800.80;317.43;;;;;;;;;;4988730;28;20223;-55
2023/01/04 11:11:24;;;;;;;846.27;337.73;;;;;;;;;;4982421;28;20664;-55
2023/01/04 11:13:51;;;;;;;812.30;340.43;;;;;;;;;;4969970;28;20284;-56
2023/01/04 11:16:17;;;;;;;834.27;354.50;;;;;;;;;;4974767;28;20934;-56
2023/01/04 11:18:46;;;;;;;812.33;349.33;;;;;;;;;;4974968;28;20300;-55
2023/01/04 11:21:14;;;;;;;793.23;335.13;;;;;;;;;;4982291;28;20220;-55
2023/01/04 11:23:40;;;;;;;826.80;334.13;;;;;;;;;;4980498;28;20554;-54
2023/01/04 11:26:18;;;;;;;843.93;362.80;;;;;;;;;;4975897;28;20422;-56
2023/01/04 11:28:53;;;;;;;894.93;354.63;;;;;;;;;;4973114;28;20272;-55
2023/01/04 11:31:38;;;;;;;771.47;325.63;;;;;;;;;;4983350;28;20226;-56
2023/01/04 11:34:06;;;;;;;677.53;279.37;;;;;;;;;;4977617;28;20368;-57
2023/01/04 11:36:35;;;;;;;812.03;325.50;;;;;;;;;;4986099;28;20783;-56
2023/01/04 11:39:02;;;;;;;692.80;294.13;;;;;;;;;;4986794;28;20576;-56
2023/01/04 11:41:29;;;;;;;775.33;300.57;;;;;;;;;;4981640;28;20730;-55
2023/01/04 11:44:03;;;;;;;831.50;330.40;;;;;;;;;;4986258;28;20833;-56
2023/01/04 11:46:34;;;;;;;753.03;310.20;;;;;;;;;;4982498;28;20245;-54
2023/01/04 11:49:00;;;;;;;829.40;344.20;;;;;;;;;;4979168;28;20284;-54
2023/01/04 11:51:27;;;;;;;760.10;305.87;;;;;;;;;;4989716;28;20309;-54
2023/01/04 11:54:06;;;;;;;803.57;318.33;;;;;;;;;;4994988;28;20217;-56
2023/01/04 11:56:36;;;;;;;758.53;294.90;;;;;;;;;;5003097;28;20764;-56
2023/01/04 11:59:03;;;;;;;838.73;326.87;;;;;;;;;;4982226;28;20205;-55
2023/01/04 12:01:30;;;;;;;799.33;331.87;;;;;;;;;;4993151;28;20301;-55
2023/01/04 12:03:58;;;;;;;845.90;337.20;;;;;;;;;;4986296;28;20760;-55
2023/01/04 12:06:43;;;;;;;787.60;314.77;;;;;;;;;;4991169;28;20692;-55
2023/01/04 12:09:14;;;;;;;781.90;311.10;;;;;;;;;;4978781;28;20212;-56
2023/01/04 12:11:42;;;;;;;752.30;314.43;;;;;;;;;;4977569;28;20223;-56
2023/01/04 12:14:34;;;;;;;750.93;305.53;;;;;;;;;;4973374;28;21209;-55
2023/01/04 12:17:22;;;;;;;728.33;297.03;;;;;;;;;;4970871;28;20351;-55
2023/01/04 12:19:49;;;;;;;826.80;343.80;;;;;;;;;;4953385;28;21338;-59
2023/01/04 12:22:36;;;;;;;818.10;336.23;;;;;;;;;;4982826;28;20287;-55
2023/01/04 12:25:07;;;;;;;686.17;281.97;;;;;;;;;;4990319;28;20209;-55
2023/01/04 12:27:35;;;;;;;789.50;327.93;;;;;;;;;;4978697;28;20640;-56
2023/01/04 12:30:03;;;;;;;828.47;357.67;;;;;;;;;;4960910;28;20232;-56
2023/01/04 12:32:29;;;;;;;865.27;361.47;;;;;;;;;;4973508;28;20750;-55
2023/01/04 12:34:56;;;;;;;878.23;374.97;;;;;;;;;;4980474;28;20221;-55
2023/01/04 12:37:44;;;;;;;792.97;330.50;;;;;;;;;;4982265;28;20497;-56
2023/01/04 12:40:29;;;;;;;800.07;338.50;;;;;;;;;;4987042;28;20271;-56
2023/01/04 12:43:14;;;;;;;806.40;322.33;;;;;;;;;;4990778;28;20470;-54
2023/01/04 12:45:41;;;;;;;756.17;306.63;;;;;;;;;;4994312;28;20641;-55
2023/01/04 12:51:18;;;;;;;859.50;354.17;;;;;;;;;;4981501;28;21197;-56
2023/01/04 12:53:50;;;;;;;756.87;302.13;;;;;;;;;;5002226;28;20908;-56
2023/01/04 12:56:16;;;;;;;754.57;310.53;;;;;;;;;;4989660;28;20946;-57
2023/01/04 12:59:03;;;;;;;731.50;305.63;;;;;;;;;;4989816;28;20273;-55
2023/01/04 13:01:33;;;;;;;806.67;318.60;;;;;;;;;;4985284;28;20402;-55
2023/01/04 13:04:01;;;;;;;818.97;345.40;;;;;;;;;;4999166;28;20219;-56
2023/01/04 13:06:28;;;;;;;760.70;316.17;;;;;;;;;;4996160;28;20223;-55
2023/01/04 13:08:55;;;;;;;753.23;305.60;;;;;;;;;;4997703;28;20340;-54
2023/01/04 13:11:51;;;;;;;808.63;316.27;;;;;;;;;;4980343;28;20295;-55
2023/01/04 13:14:25;;;;;;;829.57;335.23;;;;;;;;;;4997176;28;20307;-55
2023/01/04 13:17:24;;;;;;;762.73;310.63;;;;;;;;;;4996244;28;20231;-54
2023/01/04 13:19:51;;;;;;;889.87;386.07;;;;;;;;;;4986689;28;20196;-55
2023/01/04 13:22:17;;;;;;;837.57;339.47;;;;;;;;;;4997580;28;20204;-57
2023/01/04 13:24:44;;;;;;;817.20;330.57;;;;;;;;;;4981215;28;20284;-57
2023/01/04 13:27:22;;;;;;;793.33;313.97;;;;;;;;;;4990099;28;20208;-56
2023/01/04 13:29:48;;;;;;;720.00;289.67;;;;;;;;;;4979616;28;20407;-57
2023/01/04 13:32:15;;;;;;;715.13;308.73;;;;;;;;;;4989745;28;20592;-57
2023/01/04 13:34:44;;;;;;;830.47;347.77;;;;;;;;;;4985635;28;21745;-56
2023/01/04 13:37:13;;;;;;;1040.93;420.63;;;;;;;;;;4964815;28;20188;-57
2023/01/04 13:39:43;;;;;;;973.67;384.80;;;;;;;;;;4965986;28;20490;-57
2023/01/04 13:42:29;;;;;;;926.90;384.80;;;;;;;;;;4985679;28;20231;-59
2023/01/04 13:44:55;;;;;;;802.57;334.60;;;;;;;;;;4985170;28;20212;-57
2023/01/04 13:47:22;;;;;;;865.13;353.10;;;;;;;;;;4979839;28;21606;-57
2023/01/04 13:49:48;;;;;;;819.50;339.77;;;;;;;;;;4986646;28;20185;-57
2023/01/04 13:52:21;;;;;;;807.30;344.07;;;;;;;;;;4987527;28;20192;-56
2023/01/04 13:54:47;;;;;;;854.73;338.90;;;;;;;;;;4992870;28;20219;-57
2023/01/04 13:57:20;;;;;;;851.87;344.63;;;;;;;;;;4974120;28;20219;-57
2023/01/04 13:59:50;;;;;;;846.93;359.17;;;;;;;;;;4966578;28;20763;-56
2023/01/04 14:02:23;;;;;;;808.20;344.63;;;;;;;;;;4974593;28;20358;-57
2023/01/04 14:04:50;;;;;;;831.50;342.67;;;;;;;;;;4975664;28;20212;-57
2023/01/04 14:07:25;;;;;;;872.63;363.57;;;;;;;;;;4953462;28;20300;-57
2023/01/04 14:09:54;;;;;;;792.23;328.63;;;;;;;;;;4983538;28;20671;-58
2023/01/04 14:12:23;;;;;;;821.57;346.43;;;;;;;;;;4970912;28;20266;-57
2023/01/04 14:15:08;;;;;;;839.13;339.20;;;;;;;;;;4975008;28;20217;-57
2023/01/04 14:17:50;;;;;;;793.37;331.57;;;;;;;;;;4966864;28;20200;-57
2023/01/04 14:20:21;;;;;;;891.73;368.67;;;;;;;;;;4973765;28;20357;-57
2023/01/04 14:22:51;;;;;;;823.40;353.97;;;;;;;;;;4984880;28;20217;-57
2023/01/04 14:25:47;;;;;;;926.33;379.07;;;;;;;;;;4953185;28;20188;-56
2023/01/04 14:28:17;;;;;;;752.63;297.60;;;;;;;;;;4989044;28;20315;-54
2023/01/04 14:30:44;;;;;;;825.63;318.57;;;;;;;;;;5008240;28;20266;-54
2023/01/04 14:33:17;;;;;;;715.30;292.67;;;;;;;;;;4999063;28;20276;-54
2023/01/04 14:35:44;;;;;;;771.37;310.97;;;;;;;;;;5018346;28;20243;-54
2023/01/04 14:38:15;;;;;;;772.77;300.13;;;;;;;;;;5008984;28;20219;-53
2023/01/04 14:40:42;;;;;;;788.37;313.17;;;;;;;;;;5006576;28;20224;-56
2023/01/04 14:43:27;;;;;;;813.10;314.20;;;;;;;;;;5004068;28;20189;-54
2023/01/04 14:45:53;;;;;;;744.33;289.40;;;;;;;;;;5008261;28;20220;-53
2023/01/04 14:48:19;;;;;;;810.50;314.07;;;;;;;;;;5006615;28;20208;-55
2023/01/04 14:50:46;;;;;;;779.87;295.00;;;;;;;;;;5003682;28;20251;-53
2023/01/04 14:53:17;;;;;;;755.40;311.20;;;;;;;;;;5000726;28;20223;-54
2023/01/04 14:55:44;;;;;;;812.20;318.70;;;;;;;;;;5007857;28;21418;-53
2023/01/04 14:58:10;;;;;;;719.03;284.57;;;;;;;;;;5014319;28;20584;-55
2023/01/04 15:00:37;;;;;;;698.20;283.20;;;;;;;;;;4993986;28;20226;-54